Time;durP1;ratioP1;P1;durP2;ratioP2;P2;SDS_P1;SDS_P2;PMS_P1;PMS_P2;Temp;Humidity;BMP_temperature;BMP_pressure;BME280_temperature;BME280_humidity;BME280_pressure;Samples;Min_cycle;Max_cycle;Signal;HPM_P1;HPM_P2
2021/12/29 00:02:05;;;;;;;;;;;19.40;40.70;;;;;;5074232;28;19920;-53
2021/12/29 00:04:32;;;;;;;;;;;19.40;40.70;;;;;;5072883;28;19954;-54
2021/12/29 00:06:59;;;;;;;;;;;19.40;40.70;;;;;;5074602;28;19924;-53
2021/12/29 00:09:25;;;;;;;;;;;19.40;40.70;;;;;;5075319;28;20373;-53
2021/12/29 00:11:52;;;;;;;;;;;19.40;40.70;;;;;;5073330;28;20007;-50
2021/12/29 00:14:20;;;;;;;;;;;19.40;40.70;;;;;;5073611;28;19931;-51
2021/12/29 00:16:47;;;;;;;;;;;19.40;40.70;;;;;;5073137;28;19982;-53
2021/12/29 00:19:13;;;;;;;;;;;19.40;40.70;;;;;;5073365;28;20285;-53
2021/12/29 00:21:40;;;;;;;;;;;19.40;40.70;;;;;;5073112;28;20301;-50
2021/12/29 00:24:07;;;;;;;;;;;19.40;40.70;;;;;;5073087;28;20382;-53
2021/12/29 00:26:34;;;;;;;;;;;19.40;40.80;;;;;;5074405;28;20046;-54
2021/12/29 00:29:00;;;;;;;;;;;19.40;40.70;;;;;;5073012;28;19939;-50
2021/12/29 00:31:28;;;;;;;;;;;19.40;40.80;;;;;;5072515;28;19925;-54
2021/12/29 00:33:55;;;;;;;;;;;19.40;40.80;;;;;;5072685;28;20269;-48
2021/12/29 00:36:22;;;;;;;;;;;19.40;40.80;;;;;;5072623;28;19924;-52
2021/12/29 00:38:49;;;;;;;;;;;19.40;40.80;;;;;;5072733;28;19931;-54
2021/12/29 00:41:16;;;;;;;;;;;19.40;40.80;;;;;;5072714;28;19924;-51
2021/12/29 00:43:42;;;;;;;;;;;19.40;40.80;;;;;;5073775;28;19924;-51
2021/12/29 00:46:12;;;;;;;;;;;19.40;40.80;;;;;;5072701;28;19985;-54
2021/12/29 00:48:42;;;;;;;;;;;19.40;40.80;;;;;;5073008;28;19925;-52
2021/12/29 00:51:09;;;;;;;;;;;19.40;40.80;;;;;;5074240;28;19928;-52
2021/12/29 00:53:36;;;;;;;;;;;19.40;40.80;;;;;;5072581;28;20011;-50
2021/12/29 00:56:03;;;;;;;;;;;19.40;40.80;;;;;;5072744;28;19928;-51
2021/12/29 00:58:30;;;;;;;;;;;19.50;40.90;;;;;;5072893;28;19924;-54
2021/12/29 01:00:57;;;;;;;;;;;19.40;40.80;;;;;;5074404;28;19924;-51
2021/12/29 01:03:25;;;;;;;;;;;19.40;40.80;;;;;;5072859;28;20291;-52
2021/12/29 01:05:53;;;;;;;;;;;19.50;40.90;;;;;;5072678;28;20381;-49
2021/12/29 01:08:20;;;;;;;;;;;19.40;40.80;;;;;;5072885;28;19924;-50
2021/12/29 01:10:47;;;;;;;;;;;19.40;40.80;;;;;;5066323;28;19931;-53
2021/12/29 01:13:18;;;;;;;;;;;19.40;40.80;;;;;;5071772;28;19924;-52
2021/12/29 01:15:57;;;;;;;;;;;19.50;40.90;;;;;;5072286;28;19964;-52
2021/12/29 01:18:24;;;;;;;;;;;19.40;40.80;;;;;;5072250;28;20290;-52
2021/12/29 01:20:51;;;;;;;;;;;19.40;40.90;;;;;;5071550;28;19924;-52
2021/12/29 01:23:19;;;;;;;;;;;19.50;41.50;;;;;;5072078;28;19924;-53
2021/12/29 01:25:45;;;;;;;;;;;19.50;40.90;;;;;;5073921;28;19995;-56
2021/12/29 01:28:12;;;;;;;;;;;19.50;40.90;;;;;;5072458;28;19928;-50
2021/12/29 01:30:39;;;;;;;;;;;19.50;40.90;;;;;;5072178;28;19925;-53
2021/12/29 01:33:06;;;;;;;;;;;19.50;40.90;;;;;;5072354;28;19939;-54
2021/12/29 01:35:33;;;;;;;;;;;19.50;40.90;;;;;;5072421;28;19932;-53
2021/12/29 01:38:00;;;;;;;;;;;19.50;40.90;;;;;;5071730;28;19928;-53
2021/12/29 01:40:28;;;;;;;;;;;19.50;40.90;;;;;;5063461;28;19924;-53
2021/12/29 01:42:54;;;;;;;;;;;19.50;40.90;;;;;;5071655;28;19928;-51
2021/12/29 01:45:21;;;;;;;;;;;19.50;40.90;;;;;;5071899;28;19964;-51
2021/12/29 01:47:49;;;;;;;;;;;19.50;40.90;;;;;;5071891;28;19924;-52
2021/12/29 01:50:16;;;;;;;;;;;19.50;40.90;;;;;;5073067;28;20340;-53
2021/12/29 01:52:49;;;;;;;;;;;19.50;40.90;;;;;;5071329;28;19928;-53
2021/12/29 01:55:16;;;;;;;;;;;19.50;40.90;;;;;;5071394;28;19925;-52
2021/12/29 01:57:44;;;;;;;;;;;19.50;40.90;;;;;;5071191;28;19974;-54
2021/12/29 02:00:12;;;;;;;;;;;19.50;40.90;;;;;;5071657;28;20415;-50
2021/12/29 02:02:39;;;;;;;;;;;19.50;40.90;;;;;;5071525;28;19974;-52
2021/12/29 02:05:06;;;;;;;;;;;19.50;40.90;;;;;;5071387;28;20353;-53
2021/12/29 02:07:33;;;;;;;;;;;19.50;40.90;;;;;;5071428;28;19932;-56
2021/12/29 02:10:00;;;;;;;;;;;19.50;40.90;;;;;;5071274;28;20006;-52
2021/12/29 02:12:27;;;;;;;;;;;19.50;40.90;;;;;;5060132;28;19935;-54
2021/12/29 02:14:55;;;;;;;;;;;19.50;40.90;;;;;;5072176;28;20293;-54
2021/12/29 02:17:22;;;;;;;;;;;19.50;40.90;;;;;;5070935;28;19939;-52
2021/12/29 02:19:49;;;;;;;;;;;19.50;40.90;;;;;;5071044;28;19939;-48
2021/12/29 02:22:30;;;;;;;;;;;19.50;40.90;;;;;;5070830;28;19982;-49
2021/12/29 02:25:08;;;;;;;;;;;19.50;41.00;;;;;;5070899;28;19990;-51
2021/12/29 02:27:35;;;;;;;;;;;19.50;41.00;;;;;;5066929;28;19956;-53
2021/12/29 02:30:02;;;;;;;;;;;19.50;40.90;;;;;;5076704;28;19967;-52
2021/12/29 02:32:29;;;;;;;;;;;19.50;41.00;;;;;;5070933;28;20015;-51
2021/12/29 02:34:56;;;;;;;;;;;19.50;41.00;;;;;;5071195;28;20015;-51
2021/12/29 02:37:24;;;;;;;;;;;19.50;40.90;;;;;;5071258;28;20023;-49
2021/12/29 02:39:52;;;;;;;;;;;19.50;40.90;;;;;;5071342;28;19931;-48
2021/12/29 02:42:20;;;;;;;;;;;19.50;41.00;;;;;;5071237;28;19931;-52
2021/12/29 02:44:49;;;;;;;;;;;19.50;40.90;;;;;;5070677;28;19931;-51
2021/12/29 02:47:15;;;;;;;;;;;19.50;41.00;;;;;;5070617;28;19954;-53
2021/12/29 02:49:42;;;;;;;;;;;19.50;41.00;;;;;;5071784;28;19931;-54
2021/12/29 02:52:11;;;;;;;;;;;19.50;41.00;;;;;;5070760;28;19985;-52
2021/12/29 02:54:39;;;;;;;;;;;19.50;41.00;;;;;;5070944;28;19924;-49
2021/12/29 02:57:06;;;;;;;;;;;19.50;41.00;;;;;;5071976;28;20309;-51
2021/12/29 02:59:32;;;;;;;;;;;19.50;40.90;;;;;;5070682;28;20236;-53
2021/12/29 03:01:59;;;;;;;;;;;19.50;41.00;;;;;;5072268;28;19928;-54
2021/12/29 03:04:26;;;;;;;;;;;19.50;41.00;;;;;;5071630;28;19963;-51
2021/12/29 03:06:53;;;;;;;;;;;19.50;40.90;;;;;;5070629;28;20019;-53
2021/12/29 03:09:19;;;;;;;;;;;19.50;41.00;;;;;;5071611;28;19971;-51
2021/12/29 03:11:47;;;;;;;;;;;19.50;41.00;;;;;;5069800;28;19925;-49
2021/12/29 03:14:14;;;;;;;;;;;19.50;41.00;;;;;;5070713;28;20309;-54
2021/12/29 03:16:41;;;;;;;;;;;19.50;41.00;;;;;;5070613;28;19951;-55
2021/12/29 03:19:08;;;;;;;;;;;19.50;41.00;;;;;;5070725;28;19925;-50
2021/12/29 03:21:35;;;;;;;;;;;19.50;41.00;;;;;;5070209;28;19928;-55
2021/12/29 03:24:02;;;;;;;;;;;19.50;40.90;;;;;;5070285;28;20373;-52
2021/12/29 03:26:29;;;;;;;;;;;19.50;40.90;;;;;;5069398;28;20019;-52
2021/12/29 03:28:58;;;;;;;;;;;19.50;40.90;;;;;;5070332;28;20357;-51
2021/12/29 03:31:24;;;;;;;;;;;19.50;40.90;;;;;;5070340;28;19939;-52
2021/12/29 03:33:51;;;;;;;;;;;19.50;40.90;;;;;;5071637;28;20431;-56
2021/12/29 03:36:18;;;;;;;;;;;19.50;41.00;;;;;;5070432;28;20562;-51
2021/12/29 03:38:46;;;;;;;;;;;19.50;40.90;;;;;;5070543;28;19932;-60
2021/12/29 03:41:13;;;;;;;;;;;19.50;41.00;;;;;;5070196;28;19935;-50
2021/12/29 03:43:39;;;;;;;;;;;19.50;41.00;;;;;;5069997;28;20404;-52
2021/12/29 03:46:08;;;;;;;;;;;19.50;41.00;;;;;;5070391;28;19928;-54
2021/12/29 03:48:35;;;;;;;;;;;19.50;41.00;;;;;;5069912;28;19929;-52
2021/12/29 03:51:01;;;;;;;;;;;19.50;40.90;;;;;;5070392;28;20035;-53
2021/12/29 03:53:28;;;;;;;;;;;19.50;41.00;;;;;;5070365;28;20007;-52
2021/12/29 03:55:56;;;;;;;;;;;19.50;41.00;;;;;;5069951;28;19975;-52
2021/12/29 03:58:23;;;;;;;;;;;19.50;41.00;;;;;;5071224;28;20296;-54
2021/12/29 04:00:50;;;;;;;;;;;19.50;41.00;;;;;;5071198;28;20010;-53
2021/12/29 04:03:18;;;;;;;;;;;19.50;41.00;;;;;;5069926;28;19989;-48
2021/12/29 04:05:45;;;;;;;;;;;19.50;41.00;;;;;;5070180;28;20309;-53
2021/12/29 04:08:12;;;;;;;;;;;19.50;41.00;;;;;;5070111;28;19974;-51
2021/12/29 04:10:39;;;;;;;;;;;19.50;41.00;;;;;;5071259;28;19924;-49
2021/12/29 04:13:06;;;;;;;;;;;19.50;41.00;;;;;;5071124;28;19924;-52
2021/12/29 04:15:33;;;;;;;;;;;19.50;41.00;;;;;;5075154;28;19971;-52
2021/12/29 04:18:02;;;;;;;;;;;19.50;41.00;;;;;;5070050;28;19924;-54
2021/12/29 04:23:16;;;;;;;;;;;19.50;41.00;;;;;;5069533;28;19924;-51
2021/12/29 04:25:46;;;;;;;;;;;19.50;41.00;;;;;;5069480;28;20015;-50
2021/12/29 04:28:16;;;;;;;;;;;19.50;41.50;;;;;;5069864;28;20015;-51
2021/12/29 04:30:43;;;;;;;;;;;19.50;41.00;;;;;;5069968;28;19928;-51
2021/12/29 04:33:10;;;;;;;;;;;19.50;41.00;;;;;;5070506;28;19967;-52
2021/12/29 04:35:38;;;;;;;;;;;19.50;40.90;;;;;;5069251;28;20002;-52
2021/12/29 04:38:05;;;;;;;;;;;19.50;40.90;;;;;;5071868;28;20023;-52
2021/12/29 04:40:31;;;;;;;;;;;19.50;40.90;;;;;;5072736;28;20394;-52
2021/12/29 04:42:58;;;;;;;;;;;19.50;40.90;;;;;;5074784;28;20285;-49
2021/12/29 04:45:25;;;;;;;;;;;19.50;40.90;;;;;;5073009;28;20010;-54
2021/12/29 04:47:51;;;;;;;;;;;19.50;41.00;;;;;;5072570;28;19925;-46
2021/12/29 04:50:25;;;;;;;;;;;19.50;40.90;;;;;;5072696;28;19968;-46
2021/12/29 04:52:53;;;;;;;;;;;19.50;40.90;;;;;;5082479;28;19924;-51
2021/12/29 04:55:20;;;;;;;;;;;19.50;40.90;;;;;;5072857;28;19936;-48
2021/12/29 04:57:46;;;;;;;;;;;19.50;40.90;;;;;;5072392;28;19978;-51
2021/12/29 05:00:15;;;;;;;;;;;19.50;40.90;;;;;;5072448;28;20369;-50
2021/12/29 05:02:42;;;;;;;;;;;19.50;40.90;;;;;;5072190;28;19925;-50
2021/12/29 05:05:19;;;;;;;;;;;19.50;40.90;;;;;;5072706;28;19924;-48
2021/12/29 05:10:32;;;;;;;;;;;19.50;40.90;;;;;;5069968;28;20290;-47
2021/12/29 05:12:59;;;;;;;;;;;19.50;40.90;;;;;;5072032;28;19924;-49
2021/12/29 05:15:26;;;;;;;;;;;19.50;40.90;;;;;;5072249;28;19935;-49
2021/12/29 05:17:54;;;;;;;;;;;19.50;40.90;;;;;;5078827;28;19925;-49
2021/12/29 05:20:21;;;;;;;;;;;19.50;40.90;;;;;;5073824;28;19925;-47
2021/12/29 05:22:48;;;;;;;;;;;19.50;40.90;;;;;;5069589;28;20003;-49
2021/12/29 05:25:15;;;;;;;;;;;19.50;40.90;;;;;;5072121;28;19924;-48
2021/12/29 05:27:43;;;;;;;;;;;19.50;40.90;;;;;;5073024;28;19932;-46
2021/12/29 05:30:10;;;;;;;;;;;19.50;40.90;;;;;;5069939;28;19928;-47
2021/12/29 05:32:37;;;;;;;;;;;19.50;40.90;;;;;;5078511;28;20318;-50
2021/12/29 05:35:04;;;;;;;;;;;19.50;40.90;;;;;;5062016;28;20373;-52
2021/12/29 05:37:30;;;;;;;;;;;19.50;40.90;;;;;;5075622;28;19963;-52
2021/12/29 05:39:57;;;;;;;;;;;19.50;40.90;;;;;;5073510;28;19960;-48
2021/12/29 05:42:24;;;;;;;;;;;19.50;40.90;;;;;;5073302;28;19933;-46
2021/12/29 05:44:52;;;;;;;;;;;19.50;40.90;;;;;;5072010;28;19924;-51
2021/12/29 05:47:18;;;;;;;;;;;19.50;40.90;;;;;;5071682;28;20498;-53
2021/12/29 05:49:45;;;;;;;;;;;19.50;40.90;;;;;;5070578;28;19963;-51
2021/12/29 05:52:15;;;;;;;;;;;19.50;40.90;;;;;;5070976;28;19931;-46
2021/12/29 05:54:42;;;;;;;;;;;19.50;40.90;;;;;;5070899;28;19925;-48
2021/12/29 05:57:09;;;;;;;;;;;19.50;40.90;;;;;;5071582;28;19950;-48
2021/12/29 05:59:36;;;;;;;;;;;19.50;40.90;;;;;;5072065;28;19999;-46
2021/12/29 06:02:04;;;;;;;;;;;19.50;40.90;;;;;;5070632;28;19986;-49
2021/12/29 06:04:31;;;;;;;;;;;19.50;40.90;;;;;;5071238;28;19924;-46
2021/12/29 06:06:58;;;;;;;;;;;19.50;40.90;;;;;;5072340;28;19947;-47
2021/12/29 06:09:25;;;;;;;;;;;19.50;40.90;;;;;;5071110;28;19931;-52
2021/12/29 06:11:51;;;;;;;;;;;19.50;40.90;;;;;;5072868;28;19956;-47
2021/12/29 06:14:18;;;;;;;;;;;19.50;40.90;;;;;;5072061;28;19924;-45
2021/12/29 06:16:45;;;;;;;;;;;19.50;40.80;;;;;;5071466;28;19929;-47
2021/12/29 06:19:13;;;;;;;;;;;19.50;40.90;;;;;;5071168;28;19931;-51
2021/12/29 06:21:39;;;;;;;;;;;19.50;40.90;;;;;;5072293;28;19924;-50
2021/12/29 06:24:07;;;;;;;;;;;19.50;40.90;;;;;;5071360;28;19972;-47
2021/12/29 06:26:34;;;;;;;;;;;19.50;40.90;;;;;;5071518;28;20048;-52
2021/12/29 06:29:00;;;;;;;;;;;19.50;40.90;;;;;;5071174;28;19951;-46
2021/12/29 06:31:27;;;;;;;;;;;19.50;40.90;;;;;;5071568;28;19939;-46
2021/12/29 06:33:54;;;;;;;;;;;19.50;40.80;;;;;;5071215;28;19931;-47
2021/12/29 06:36:22;;;;;;;;;;;19.50;40.90;;;;;;5071212;28;20293;-48
2021/12/29 06:38:49;;;;;;;;;;;19.50;40.90;;;;;;5067623;28;19971;-48
2021/12/29 06:41:15;;;;;;;;;;;19.50;40.80;;;;;;5066346;28;19956;-49
2021/12/29 06:43:42;;;;;;;;;;;19.50;40.80;;;;;;5067036;28;19924;-49
2021/12/29 06:46:09;;;;;;;;;;;19.50;40.80;;;;;;5070270;28;19925;-53
2021/12/29 06:48:36;;;;;;;;;;;19.50;40.90;;;;;;5070888;28;20023;-47
2021/12/29 06:51:02;;;;;;;;;;;19.50;40.80;;;;;;5072027;28;20019;-48
2021/12/29 06:53:31;;;;;;;;;;;19.50;40.80;;;;;;5070387;28;19948;-46
2021/12/29 06:55:59;;;;;;;;;;;19.50;40.80;;;;;;5070718;28;19928;-48
2021/12/29 06:58:26;;;;;;;;;;;19.50;40.90;;;;;;5070517;28;19931;-47
2021/12/29 07:00:53;;;;;;;;;;;19.50;40.80;;;;;;5071607;28;19931;-48
2021/12/29 07:03:20;;;;;;;;;;;19.50;40.80;;;;;;5070884;28;20019;-47
2021/12/29 07:05:46;;;;;;;;;;;19.50;40.80;;;;;;5070332;28;19928;-50
2021/12/29 07:08:14;;;;;;;;;;;19.50;40.80;;;;;;5069517;28;19931;-46
2021/12/29 07:10:42;;;;;;;;;;;19.50;40.80;;;;;;5063355;28;19929;-50
2021/12/29 07:13:09;;;;;;;;;;;19.50;40.80;;;;;;5068608;28;19924;-52
2021/12/29 07:15:36;;;;;;;;;;;19.50;40.80;;;;;;5070598;28;19928;-47
2021/12/29 07:18:03;;;;;;;;;;;19.50;40.80;;;;;;5069790;28;20378;-50
2021/12/29 07:20:30;;;;;;;;;;;19.50;40.80;;;;;;5069967;28;19959;-51
2021/12/29 07:22:57;;;;;;;;;;;19.50;40.80;;;;;;5071207;28;20378;-53
2021/12/29 07:25:24;;;;;;;;;;;19.50;40.80;;;;;;5070462;28;19931;-47
2021/12/29 07:27:52;;;;;;;;;;;19.50;40.80;;;;;;5070384;28;19930;-50
2021/12/29 07:30:19;;;;;;;;;;;19.50;40.80;;;;;;5069986;28;19932;-52
2021/12/29 07:32:46;;;;;;;;;;;19.50;40.80;;;;;;5071085;28;19931;-50
2021/12/29 07:35:13;;;;;;;;;;;19.50;40.80;;;;;;5070549;28;20360;-49
2021/12/29 07:37:39;;;;;;;;;;;19.50;40.80;;;;;;5073487;28;20031;-50
2021/12/29 07:40:08;;;;;;;;;;;19.50;40.80;;;;;;5070207;28;20370;-51
2021/12/29 07:42:36;;;;;;;;;;;19.50;40.80;;;;;;5070373;28;20365;-47
2021/12/29 07:45:06;;;;;;;;;;;19.50;40.80;;;;;;5072009;28;19960;-51
2021/12/29 07:47:33;;;;;;;;;;;19.50;40.80;;;;;;5070872;28;20019;-49
2021/12/29 07:50:00;;;;;;;;;;;19.50;40.80;;;;;;5071398;28;20015;-52
2021/12/29 07:52:27;;;;;;;;;;;19.50;40.80;;;;;;5069939;28;19970;-51
2021/12/29 07:54:53;;;;;;;;;;;19.50;40.70;;;;;;5070760;28;20015;-50
2021/12/29 07:57:20;;;;;;;;;;;19.50;40.70;;;;;;5070754;28;19967;-49
2021/12/29 07:59:47;;;;;;;;;;;19.50;40.70;;;;;;5069815;28;20357;-50
2021/12/29 08:02:17;;;;;;;;;;;19.50;40.80;;;;;;5056756;28;19928;-50
2021/12/29 08:04:44;;;;;;;;;;;19.50;40.80;;;;;;5069837;28;19931;-51
2021/12/29 08:07:11;;;;;;;;;;;19.50;40.70;;;;;;5070759;28;20383;-47
2021/12/29 08:09:37;;;;;;;;;;;19.50;40.70;;;;;;5072150;28;20031;-52
2021/12/29 08:12:04;;;;;;;;;;;19.50;40.70;;;;;;5069481;28;20389;-52
2021/12/29 08:14:31;;;;;;;;;;;19.50;40.70;;;;;;5073502;28;19983;-52
2021/12/29 08:16:58;;;;;;;;;;;19.50;40.80;;;;;;5073644;28;20115;-52
2021/12/29 08:19:26;;;;;;;;;;;19.50;40.70;;;;;;5074978;28;19924;-49
2021/12/29 08:21:53;;;;;;;;;;;19.50;40.70;;;;;;5057234;28;19924;-52
2021/12/29 08:24:20;;;;;;;;;;;19.50;40.80;;;;;;5073163;28;19960;-52
2021/12/29 08:26:47;;;;;;;;;;;19.50;40.70;;;;;;5074198;28;19932;-51
2021/12/29 08:29:13;;;;;;;;;;;19.50;40.80;;;;;;5071695;28;19966;-49
2021/12/29 08:31:40;;;;;;;;;;;19.50;40.70;;;;;;5071789;28;20019;-48
2021/12/29 08:34:07;;;;;;;;;;;19.50;40.80;;;;;;5073675;28;20036;-48
2021/12/29 08:36:35;;;;;;;;;;;19.50;40.70;;;;;;5073514;28;19924;-47
2021/12/29 08:39:02;;;;;;;;;;;19.50;40.80;;;;;;5080301;28;19925;-46
2021/12/29 08:41:29;;;;;;;;;;;19.50;40.80;;;;;;5072673;28;20023;-46
2021/12/29 08:43:56;;;;;;;;;;;19.50;40.70;;;;;;5065005;28;19925;-51
2021/12/29 08:46:23;;;;;;;;;;;19.50;40.80;;;;;;5073210;28;19933;-48
2021/12/29 08:48:50;;;;;;;;;;;19.50;40.70;;;;;;5074381;28;19931;-49
2021/12/29 08:51:17;;;;;;;;;;;19.50;40.70;;;;;;5074736;28;19947;-46
2021/12/29 08:53:45;;;;;;;;;;;19.50;40.70;;;;;;5073320;28;20276;-52
2021/12/29 08:56:13;;;;;;;;;;;19.50;40.70;;;;;;5074784;28;20385;-49
2021/12/29 08:58:40;;;;;;;;;;;19.50;40.70;;;;;;5074396;28;19978;-50
2021/12/29 09:01:06;;;;;;;;;;;19.50;40.70;;;;;;5074588;28;19960;-46
2021/12/29 09:03:33;;;;;;;;;;;19.50;40.80;;;;;;5072812;28;19946;-46
2021/12/29 09:06:00;;;;;;;;;;;19.50;40.80;;;;;;5072443;28;19932;-49
2021/12/29 09:08:27;;;;;;;;;;;19.50;40.80;;;;;;5072629;28;19931;-46
2021/12/29 09:10:55;;;;;;;;;;;19.50;40.80;;;;;;5073210;28;19932;-50
2021/12/29 09:13:22;;;;;;;;;;;19.50;40.80;;;;;;5072852;28;20275;-50
2021/12/29 09:15:53;;;;;;;;;;;19.50;40.80;;;;;;5072157;28;19964;-54
2021/12/29 09:18:21;;;;;;;;;;;19.50;40.80;;;;;;5067348;28;19931;-51
2021/12/29 09:20:48;;;;;;;;;;;19.50;40.80;;;;;;5073804;28;19932;-48
2021/12/29 09:23:15;;;;;;;;;;;19.50;40.80;;;;;;5071936;28;19929;-52
2021/12/29 09:25:43;;;;;;;;;;;19.50;40.80;;;;;;5071280;28;19977;-49
2021/12/29 09:28:12;;;;;;;;;;;19.50;40.80;;;;;;5069711;28;20035;-48
2021/12/29 09:30:39;;;;;;;;;;;19.60;40.90;;;;;;5072487;28;19964;-47
2021/12/29 09:33:07;;;;;;;;;;;19.60;40.90;;;;;;5072329;28;19929;-47
2021/12/29 09:35:34;;;;;;;;;;;19.60;40.90;;;;;;5072272;28;20377;-52
2021/12/29 09:38:01;;;;;;;;;;;19.60;40.90;;;;;;5079904;28;20456;-54
2021/12/29 09:40:28;;;;;;;;;;;19.60;40.90;;;;;;5070912;28;20032;-55
2021/12/29 09:42:55;;;;;;;;;;;19.60;40.80;;;;;;5071788;28;19931;-53
2021/12/29 09:45:23;;;;;;;;;;;19.60;40.70;;;;;;5071606;28;19925;-52
2021/12/29 09:47:50;;;;;;;;;;;19.60;40.60;;;;;;5071775;28;20576;-51
2021/12/29 09:50:18;;;;;;;;;;;19.50;40.50;;;;;;5071910;28;19925;-50
2021/12/29 09:52:45;;;;;;;;;;;19.50;40.40;;;;;;5070080;28;19924;-54
2021/12/29 09:55:13;;;;;;;;;;;19.50;40.40;;;;;;5071241;28;19925;-51
2021/12/29 09:57:41;;;;;;;;;;;19.50;40.20;;;;;;5072988;28;19929;-44
2021/12/29 10:00:09;;;;;;;;;;;19.50;40.10;;;;;;5077377;28;19928;-48
2021/12/29 10:02:38;;;;;;;;;;;19.50;40.10;;;;;;5077503;28;20016;-46
2021/12/29 10:05:05;;;;;;;;;;;19.50;40.10;;;;;;5078322;28;19925;-43
2021/12/29 10:07:32;;;;;;;;;;;19.50;40.10;;;;;;5080943;28;19929;-47
2021/12/29 10:09:59;;;;;;;;;;;19.50;40.20;;;;;;5096776;28;19928;-42
2021/12/29 10:12:27;;;;;;;;;;;19.50;40.20;;;;;;5076702;28;19924;-45
2021/12/29 10:14:55;;;;;;;;;;;19.50;40.30;;;;;;5078241;28;19930;-44
2021/12/29 10:17:25;;;;;;;;;;;19.50;40.40;;;;;;5068041;28;20423;-45
2021/12/29 10:20:02;;;;;;;;;;;19.50;42.20;;;;;;5062754;28;20023;-42
2021/12/29 10:22:29;;;;;;;;;;;19.60;42.00;;;;;;5076512;28;19929;-46
2021/12/29 10:24:56;;;;;;;;;;;;;;;;;;5075589;28;19952;-44
2021/12/29 10:27:23;;;;;;;;;;;19.80;45.50;;;;;;5075890;28;19951;-46
2021/12/29 10:29:50;;;;;;;;;;;19.80;43.70;;;;;;5074454;28;19928;-50
2021/12/29 10:32:22;;;;;;;;;;;19.80;43.20;;;;;;5075490;28;20023;-45
2021/12/29 10:34:50;;;;;;;;;;;19.80;43.00;;;;;;5073723;28;20328;-44
2021/12/29 10:37:20;;;;;;;;;;;19.80;42.90;;;;;;5073683;28;20015;-46
2021/12/29 10:39:48;;;;;;;;;;;19.80;42.80;;;;;;5086079;28;19931;-43
2021/12/29 10:42:15;;;;;;;;;;;19.70;42.70;;;;;;5062642;28;19964;-45
2021/12/29 10:44:43;;;;;;;;;;;19.70;42.70;;;;;;5054548;28;19928;-51
2021/12/29 10:47:13;;;;;;;;;;;19.70;42.60;;;;;;5071114;28;19987;-45
2021/12/29 10:49:48;;;;;;;;;;;19.70;42.60;;;;;;5073349;28;19994;-43
2021/12/29 10:52:15;;;;;;;;;;;19.70;42.60;;;;;;5076641;28;19947;-46
2021/12/29 10:54:43;;;;;;;;;;;19.70;42.70;;;;;;5076035;28;19931;-46
2021/12/29 10:57:12;;;;;;;;;;;19.70;42.60;;;;;;5076746;28;19924;-50
2021/12/29 10:59:41;;;;;;;;;;;19.70;42.50;;;;;;5076065;28;19928;-48
2021/12/29 11:02:08;;;;;;;;;;;19.70;42.40;;;;;;5069643;28;19951;-47
2021/12/29 11:04:35;;;;;;;;;;;19.70;42.40;;;;;;5061435;28;19924;-49
2021/12/29 11:07:02;;;;;;;;;;;19.70;42.30;;;;;;5072890;28;19935;-51
2021/12/29 11:09:29;;;;;;;;;;;19.70;42.50;;;;;;5091542;28;20335;-49
2021/12/29 11:11:57;;;;;;;;;;;19.70;42.50;;;;;;5091043;28;19983;-48
2021/12/29 11:14:25;;;;;;;;;;;19.70;42.60;;;;;;5087427;28;19928;-48
2021/12/29 11:17:00;;;;;;;;;;;19.70;42.60;;;;;;5069684;28;21725;-53
2021/12/29 11:19:27;;;;;;;;;;;19.70;42.60;;;;;;5070527;28;19925;-47
2021/12/29 11:22:04;;;;;;;;;;;19.70;42.70;;;;;;5069708;28;19924;-48
2021/12/29 11:24:31;;;;;;;;;;;19.70;42.70;;;;;;5069941;28;20403;-49
2021/12/29 11:27:00;;;;;;;;;;;19.70;42.80;;;;;;5071194;28;19924;-46
2021/12/29 11:29:26;;;;;;;;;;;19.80;42.80;;;;;;5069744;28;19992;-45
2021/12/29 11:31:57;;;;;;;;;;;19.80;42.80;;;;;;5070655;28;19931;-49
2021/12/29 11:34:26;;;;;;;;;;;19.80;42.80;;;;;;5070415;28;20048;-51
2021/12/29 11:37:03;;;;;;;;;;;19.80;42.80;;;;;;5069696;28;19924;-52
2021/12/29 11:39:30;;;;;;;;;;;19.80;42.80;;;;;;5070711;28;19935;-46
2021/12/29 11:41:57;;;;;;;;;;;19.80;42.90;;;;;;5070493;28;19929;-47
2021/12/29 11:44:25;;;;;;;;;;;19.80;42.90;;;;;;5070416;28;19929;-44
2021/12/29 11:46:51;;;;;;;;;;;19.80;42.90;;;;;;5069920;28;19928;-50
2021/12/29 11:49:19;;;;;;;;;;;19.80;42.80;;;;;;5071056;28;19924;-44
2021/12/29 11:51:51;;;;;;;;;;;19.80;42.90;;;;;;5072843;28;19931;-48
2021/12/29 11:54:19;;;;;;;;;;;19.80;42.90;;;;;;5072046;28;20019;-46
2021/12/29 11:56:45;;;;;;;;;;;19.80;42.90;;;;;;5070454;28;19983;-53
2021/12/29 11:59:12;;;;;;;;;;;19.80;42.90;;;;;;5072976;28;19924;-50
2021/12/29 12:01:40;;;;;;;;;;;19.80;42.90;;;;;;5070697;28;19935;-48
2021/12/29 12:04:09;;;;;;;;;;;19.80;42.90;;;;;;5070256;28;20019;-50
2021/12/29 12:06:37;;;;;;;;;;;19.80;42.90;;;;;;5069477;28;19960;-48
2021/12/29 12:09:12;;;;;;;;;;;19.80;42.90;;;;;;5085400;28;19928;-48
2021/12/29 12:11:41;;;;;;;;;;;19.80;42.90;;;;;;5072033;28;20019;-45
2021/12/29 12:14:16;;;;;;;;;;;19.80;43.00;;;;;;5071203;28;19924;-50
2021/12/29 12:16:49;;;;;;;;;;;19.80;43.00;;;;;;5072342;28;20019;-45
2021/12/29 12:19:18;;;;;;;;;;;19.80;42.90;;;;;;5072016;28;20383;-48
2021/12/29 12:21:45;;;;;;;;;;;19.80;43.00;;;;;;5073996;28;19978;-44
2021/12/29 12:24:13;;;;;;;;;;;19.80;42.90;;;;;;5072560;28;19970;-49
2021/12/29 12:26:53;;;;;;;;;;;19.80;43.00;;;;;;5071499;28;19927;-53
2021/12/29 12:29:21;;;;;;;;;;;19.80;43.00;;;;;;5071239;28;20459;-47
2021/12/29 12:32:15;;;;;;;;;;;19.80;43.20;;;;;;5069095;28;19931;-46
2021/12/29 12:34:51;;;;;;;;;;;19.80;43.20;;;;;;5022206;28;19935;-58
2021/12/29 12:37:18;;;;;;;;;;;19.80;41.00;;;;;;5068368;28;20035;-53
2021/12/29 12:39:58;;;;;;;;;;;19.80;38.00;;;;;;5087386;28;19924;-51
2021/12/29 12:42:26;;;;;;;;;;;19.70;36.90;;;;;;5069615;28;19925;-47
2021/12/29 12:44:52;;;;;;;;;;;19.50;36.30;;;;;;5068801;28;19925;-50
2021/12/29 12:47:19;;;;;;;;;;;19.30;37.20;;;;;;5069255;28;20325;-50
2021/12/29 12:49:47;;;;;;;;;;;19.20;38.40;;;;;;5070274;28;19931;-46
2021/12/29 12:52:16;;;;;;;;;;;19.20;39.40;;;;;;5072044;28;19925;-46
2021/12/29 12:54:46;;;;;;;;;;;19.10;39.90;;;;;;5072931;28;19928;-49
2021/12/29 12:57:14;;;;;;;;;;;19.10;40.20;;;;;;5072946;28;19928;-45
2021/12/29 12:59:41;;;;;;;;;;;19.10;40.40;;;;;;5072504;28;20389;-51
2021/12/29 13:02:12;;;;;;;;;;;19.10;41.00;;;;;;5074845;28;20011;-45
2021/12/29 13:04:42;;;;;;;;;;;19.20;41.10;;;;;;5073416;28;19931;-52
2021/12/29 13:07:09;;;;;;;;;;;19.20;41.20;;;;;;5053907;28;19931;-46
2021/12/29 13:09:46;;;;;;;;;;;19.20;41.20;;;;;;5093445;28;20400;-49
2021/12/29 13:12:13;;;;;;;;;;;19.20;41.20;;;;;;5066091;28;19932;-50
2021/12/29 13:14:41;;;;;;;;;;;19.20;41.20;;;;;;5068477;28;20019;-51
2021/12/29 13:17:10;;;;;;;;;;;19.20;41.20;;;;;;5074886;28;19925;-54
2021/12/29 13:19:37;;;;;;;;;;;19.30;41.40;;;;;;5070264;28;20067;-48
2021/12/29 13:22:03;;;;;;;;;;;19.30;39.40;;;;;;5074773;28;19935;-54
2021/12/29 13:24:30;;;;;;;;;;;19.20;37.40;;;;;;5073611;28;20450;-44
2021/12/29 13:26:58;;;;;;;;;;;19.10;37.60;;;;;;5076804;28;19925;-48
2021/12/29 13:29:26;;;;;;;;;;;19.00;37.50;;;;;;5074662;28;20009;-47
2021/12/29 13:31:53;;;;;;;;;;;18.90;38.30;;;;;;5072889;28;19930;-48
2021/12/29 13:34:20;;;;;;;;;;;18.80;38.80;;;;;;5073211;28;20330;-48
2021/12/29 13:36:46;;;;;;;;;;;18.80;39.10;;;;;;5072216;28;19935;-45
2021/12/29 13:39:13;;;;;;;;;;;18.80;39.40;;;;;;5074691;28;19931;-46
2021/12/29 13:41:40;;;;;;;;;;;18.80;39.60;;;;;;5072938;28;19924;-53
2021/12/29 13:44:10;;;;;;;;;;;18.80;39.70;;;;;;5071585;28;20183;-44
2021/12/29 13:46:37;;;;;;;;;;;18.80;39.80;;;;;;5074205;28;19935;-48
2021/12/29 13:49:05;;;;;;;;;;;18.80;39.90;;;;;;5073897;28;19924;-51
2021/12/29 13:51:32;;;;;;;;;;;18.80;39.90;;;;;;5072525;28;19924;-43
2021/12/29 13:53:59;;;;;;;;;;;18.80;40.00;;;;;;5074038;28;19968;-45
2021/12/29 13:56:27;;;;;;;;;;;18.90;40.10;;;;;;5072773;28;20006;-49
2021/12/29 13:58:58;;;;;;;;;;;18.80;40.10;;;;;;5072531;28;19921;-47
2021/12/29 14:01:26;;;;;;;;;;;18.80;40.10;;;;;;5071593;28;19932;-47
2021/12/29 14:03:53;;;;;;;;;;;18.90;40.20;;;;;;5072540;28;19931;-46
2021/12/29 14:06:20;;;;;;;;;;;18.90;40.30;;;;;;5072036;28;20373;-47
2021/12/29 14:08:47;;;;;;;;;;;18.90;40.30;;;;;;5071035;28;19924;-51
2021/12/29 14:11:14;;;;;;;;;;;18.90;40.30;;;;;;5030450;28;19928;-55
2021/12/29 14:13:44;;;;;;;;;;;18.90;40.30;;;;;;5031257;28;19934;-51
2021/12/29 14:16:12;;;;;;;;;;;19.00;40.50;;;;;;5034834;28;20124;-51
2021/12/29 14:18:52;;;;;;;;;;;19.00;40.50;;;;;;5032672;28;19928;-52
2021/12/29 14:21:19;;;;;;;;;;;19.00;40.50;;;;;;5037154;28;20514;-49
2021/12/29 14:23:52;;;;;;;;;;;19.00;40.60;;;;;;5032411;28;19936;-50
2021/12/29 14:26:19;;;;;;;;;;;19.00;40.50;;;;;;5035772;28;19956;-54
2021/12/29 14:28:50;;;;;;;;;;;19.00;40.60;;;;;;5036256;28;19928;-51